sensor_id;sensor_type;location;lat;lon;timestamp;pressure;altitude;pressure_sealevel;temperature;humidity
76337;BME280;65157;50.082;18.178;2023-05-14T00:01:24;99645.01;;;11.36;61.52
76337;BME280;65157;50.082;18.178;2023-05-14T00:03:50;99642.40;;;11.30;61.47
76337;BME280;65157;50.082;18.178;2023-05-14T00:06:20;99644.17;;;11.26;61.36
76337;BME280;65157;50.082;18.178;2023-05-14T00:08:46;99638.87;;;11.21;61.30
76337;BME280;65157;50.082;18.178;2023-05-14T00:11:13;99637.90;;;11.19;61.21
76337;BME280;65157;50.082;18.178;2023-05-14T00:13:39;99633.39;;;11.16;61.52
76337;BME280;65157;50.082;18.178;2023-05-14T00:16:06;99627.17;;;11.13;61.55
76337;BME280;65157;50.082;18.178;2023-05-14T00:18:33;99623.48;;;11.08;61.92
76337;BME280;65157;50.082;18.178;2023-05-14T00:21:00;99630.07;;;11.07;61.76
76337;BME280;65157;50.082;18.178;2023-05-14T00:23:26;99623.09;;;11.00;61.89
76337;BME280;65157;50.082;18.178;2023-05-14T00:25:53;99629.27;;;11.00;62.24
76337;BME280;65157;50.082;18.178;2023-05-14T00:28:20;99628.86;;;10.97;62.28
76337;BME280;65157;50.082;18.178;2023-05-14T00:30:47;99628.98;;;10.94;62.45
76337;BME280;65157;50.082;18.178;2023-05-14T00:33:13;99633.02;;;10.90;62.74
76337;BME280;65157;50.082;18.178;2023-05-14T00:35:40;99631.36;;;10.87;62.83
76337;BME280;65157;50.082;18.178;2023-05-14T00:38:07;99635.24;;;10.82;63.03
76337;BME280;65157;50.082;18.178;2023-05-14T00:40:33;99637.03;;;10.76;63.12
76337;BME280;65157;50.082;18.178;2023-05-14T00:43:00;99634.67;;;10.73;63.15
76337;BME280;65157;50.082;18.178;2023-05-14T00:45:27;99634.25;;;10.70;63.22
76337;BME280;65157;50.082;18.178;2023-05-14T00:47:54;99634.20;;;10.66;63.31
76337;BME280;65157;50.082;18.178;2023-05-14T00:50:21;99634.88;;;10.63;63.33
76337;BME280;65157;50.082;18.178;2023-05-14T00:52:48;99633.63;;;10.58;63.41
76337;BME280;65157;50.082;18.178;2023-05-14T00:55:15;99631.80;;;10.55;63.65
76337;BME280;65157;50.082;18.178;2023-05-14T00:57:42;99630.69;;;10.52;63.86
76337;BME280;65157;50.082;18.178;2023-05-14T01:00:09;99631.23;;;10.47;63.99
76337;BME280;65157;50.082;18.178;2023-05-14T01:02:36;99630.48;;;10.43;64.27
76337;BME280;65157;50.082;18.178;2023-05-14T01:05:03;99634.31;;;10.40;64.48
76337;BME280;65157;50.082;18.178;2023-05-14T01:07:45;99638.88;;;10.35;64.80
76337;BME280;65157;50.082;18.178;2023-05-14T01:10:26;99646.10;;;10.31;65.05
76337;BME280;65157;50.082;18.178;2023-05-14T01:15:23;99647.03;;;10.24;65.38
76337;BME280;65157;50.082;18.178;2023-05-14T01:18:21;99647.66;;;10.21;65.64
76337;BME280;65157;50.082;18.178;2023-05-14T01:20:53;99645.64;;;10.18;65.93
76337;BME280;65157;50.082;18.178;2023-05-14T01:23:19;99646.21;;;10.17;65.91
76337;BME280;65157;50.082;18.178;2023-05-14T01:25:46;99646.20;;;10.18;65.91
76337;BME280;65157;50.082;18.178;2023-05-14T01:28:18;99640.25;;;10.16;66.06
76337;BME280;65157;50.082;18.178;2023-05-14T01:30:56;99629.91;;;10.09;66.00
76337;BME280;65157;50.082;18.178;2023-05-14T01:33:25;99626.25;;;10.07;66.15
76337;BME280;65157;50.082;18.178;2023-05-14T01:35:53;99632.67;;;10.09;66.17
76337;BME280;65157;50.082;18.178;2023-05-14T01:38:21;99628.17;;;10.07;66.18
76337;BME280;65157;50.082;18.178;2023-05-14T01:40:49;99628.74;;;10.06;66.25
76337;BME280;65157;50.082;18.178;2023-05-14T01:43:16;99630.56;;;10.04;66.32
76337;BME280;65157;50.082;18.178;2023-05-14T01:45:44;99629.95;;;10.02;66.37
76337;BME280;65157;50.082;18.178;2023-05-14T01:48:11;99631.23;;;10.00;66.54
76337;BME280;65157;50.082;18.178;2023-05-14T01:50:37;99633.06;;;9.98;66.49
76337;BME280;65157;50.082;18.178;2023-05-14T01:53:04;99630.69;;;9.96;66.52
76337;BME280;65157;50.082;18.178;2023-05-14T01:55:30;99626.52;;;9.88;66.77
76337;BME280;65157;50.082;18.178;2023-05-14T01:57:57;99617.62;;;9.86;66.65
76337;BME280;65157;50.082;18.178;2023-05-14T02:00:24;99627.36;;;9.90;67.08
76337;BME280;65157;50.082;18.178;2023-05-14T02:02:51;99620.03;;;9.87;67.26
76337;BME280;65157;50.082;18.178;2023-05-14T02:05:17;99619.02;;;9.86;67.34
76337;BME280;65157;50.082;18.178;2023-05-14T02:07:44;99618.59;;;9.84;67.45
76337;BME280;65157;50.082;18.178;2023-05-14T02:10:11;99613.73;;;9.81;67.50
76337;BME280;65157;50.082;18.178;2023-05-14T02:12:37;99620.95;;;9.81;67.75
76337;BME280;65157;50.082;18.178;2023-05-14T02:15:05;99617.44;;;9.81;67.58
76337;BME280;65157;50.082;18.178;2023-05-14T02:17:31;99613.95;;;9.79;67.75
76337;BME280;65157;50.082;18.178;2023-05-14T02:19:58;99607.95;;;9.80;67.81
76337;BME280;65157;50.082;18.178;2023-05-14T02:22:25;99605.86;;;9.79;68.04
76337;BME280;65157;50.082;18.178;2023-05-14T02:24:52;99599.03;;;9.78;68.10
76337;BME280;65157;50.082;18.178;2023-05-14T02:27:18;99598.86;;;9.78;68.12
76337;BME280;65157;50.082;18.178;2023-05-14T02:29:45;99594.66;;;9.77;68.22
76337;BME280;65157;50.082;18.178;2023-05-14T02:32:11;99590.98;;;9.76;68.20
76337;BME280;65157;50.082;18.178;2023-05-14T02:34:38;99588.00;;;9.76;68.34
76337;BME280;65157;50.082;18.178;2023-05-14T02:37:05;99586.98;;;9.75;68.38
76337;BME280;65157;50.082;18.178;2023-05-14T02:39:31;99585.80;;;9.73;68.31
76337;BME280;65157;50.082;18.178;2023-05-14T02:41:58;99581.80;;;9.71;68.14
76337;BME280;65157;50.082;18.178;2023-05-14T02:44:24;99581.48;;;9.70;67.97
76337;BME280;65157;50.082;18.178;2023-05-14T02:46:51;99577.31;;;9.69;67.63
76337;BME280;65157;50.082;18.178;2023-05-14T02:49:17;99573.63;;;9.68;67.51
76337;BME280;65157;50.082;18.178;2023-05-14T02:51:45;99569.27;;;9.66;67.39
76337;BME280;65157;50.082;18.178;2023-05-14T02:54:11;99568.95;;;9.65;67.20
76337;BME280;65157;50.082;18.178;2023-05-14T02:56:38;99566.90;;;9.63;67.06
76337;BME280;65157;50.082;18.178;2023-05-14T02:59:05;99566.96;;;9.62;67.17
76337;BME280;65157;50.082;18.178;2023-05-14T03:01:31;99563.30;;;9.55;67.09
76337;BME280;65157;50.082;18.178;2023-05-14T03:03:58;99566.25;;;9.57;67.15
76337;BME280;65157;50.082;18.178;2023-05-14T03:06:24;99572.48;;;9.55;67.21
76337;BME280;65157;50.082;18.178;2023-05-14T03:08:51;99577.64;;;9.53;67.10
76337;BME280;65157;50.082;18.178;2023-05-14T03:11:18;99573.29;;;9.46;67.15
76337;BME280;65157;50.082;18.178;2023-05-14T03:13:45;99570.92;;;9.43;67.11
76337;BME280;65157;50.082;18.178;2023-05-14T03:16:12;99575.23;;;9.46;67.17
76337;BME280;65157;50.082;18.178;2023-05-14T03:18:39;99577.10;;;9.43;66.99
76337;BME280;65157;50.082;18.178;2023-05-14T03:21:08;99579.50;;;9.39;67.14
76337;BME280;65157;50.082;18.178;2023-05-14T03:23:36;99581.54;;;9.36;67.30
76337;BME280;65157;50.082;18.178;2023-05-14T03:26:02;99576.88;;;9.34;67.43
76337;BME280;65157;50.082;18.178;2023-05-14T03:28:31;99577.95;;;9.33;67.50
76337;BME280;65157;50.082;18.178;2023-05-14T03:30:57;99576.99;;;9.30;67.78
76337;BME280;65157;50.082;18.178;2023-05-14T03:33:25;99574.02;;;9.29;68.03
76337;BME280;65157;50.082;18.178;2023-05-14T03:35:52;99570.05;;;9.26;68.04
76337;BME280;65157;50.082;18.178;2023-05-14T03:38:19;99563.88;;;9.27;68.09
76337;BME280;65157;50.082;18.178;2023-05-14T03:40:47;99559.48;;;9.27;68.52
76337;BME280;65157;50.082;18.178;2023-05-14T03:43:15;99556.82;;;9.27;68.76
76337;BME280;65157;50.082;18.178;2023-05-14T03:45:43;99551.17;;;9.28;69.13
76337;BME280;65157;50.082;18.178;2023-05-14T03:48:09;99550.42;;;9.29;69.34
76337;BME280;65157;50.082;18.178;2023-05-14T03:50:36;99548.28;;;9.30;69.80
76337;BME280;65157;50.082;18.178;2023-05-14T03:53:04;99548.44;;;9.30;69.84
76337;BME280;65157;50.082;18.178;2023-05-14T03:55:31;99553.33;;;9.32;69.89
76337;BME280;65157;50.082;18.178;2023-05-14T03:57:57;99551.65;;;9.35;69.69
76337;BME280;65157;50.082;18.178;2023-05-14T04:00:24;99553.30;;;9.38;69.56
76337;BME280;65157;50.082;18.178;2023-05-14T04:02:52;99556.54;;;9.41;69.27
76337;BME280;65157;50.082;18.178;2023-05-14T04:05:18;99558.35;;;9.40;69.33
76337;BME280;65157;50.082;18.178;2023-05-14T04:07:47;99555.29;;;9.37;69.48
76337;BME280;65157;50.082;18.178;2023-05-14T04:10:14;99543.41;;;9.33;69.85
76337;BME280;65157;50.082;18.178;2023-05-14T04:12:41;99551.82;;;9.40;69.78
76337;BME280;65157;50.082;18.178;2023-05-14T04:15:08;99557.79;;;9.46;69.65
76337;BME280;65157;50.082;18.178;2023-05-14T04:17:35;99557.49;;;9.49;69.64
76337;BME280;65157;50.082;18.178;2023-05-14T04:20:02;99559.48;;;9.53;69.52
76337;BME280;65157;50.082;18.178;2023-05-14T04:22:29;99553.16;;;9.53;69.39
76337;BME280;65157;50.082;18.178;2023-05-14T04:24:55;99557.83;;;9.60;69.21
76337;BME280;65157;50.082;18.178;2023-05-14T04:27:22;99565.84;;;9.63;69.25
76337;BME280;65157;50.082;18.178;2023-05-14T04:29:49;99563.99;;;9.60;69.19
76337;BME280;65157;50.082;18.178;2023-05-14T04:32:16;99568.57;;;9.61;69.08
76337;BME280;65157;50.082;18.178;2023-05-14T04:34:42;99568.36;;;9.62;69.45
76337;BME280;65157;50.082;18.178;2023-05-14T04:37:09;99563.83;;;9.66;69.49
76337;BME280;65157;50.082;18.178;2023-05-14T04:39:36;99559.40;;;9.72;69.38
76337;BME280;65157;50.082;18.178;2023-05-14T04:42:03;99559.73;;;9.77;69.62
76337;BME280;65157;50.082;18.178;2023-05-14T04:44:30;99559.98;;;9.85;69.70
76337;BME280;65157;50.082;18.178;2023-05-14T04:46:57;99561.30;;;9.93;69.80
76337;BME280;65157;50.082;18.178;2023-05-14T04:49:24;99558.48;;;9.98;69.65
76337;BME280;65157;50.082;18.178;2023-05-14T04:51:51;99567.90;;;10.11;69.66
76337;BME280;65157;50.082;18.178;2023-05-14T04:54:17;99568.12;;;10.16;69.71
76337;BME280;65157;50.082;18.178;2023-05-14T04:56:44;99558.73;;;10.22;70.09
76337;BME280;65157;50.082;18.178;2023-05-14T04:59:11;99569.41;;;10.39;70.06
76337;BME280;65157;50.082;18.178;2023-05-14T05:01:38;99565.82;;;10.54;70.02
76337;BME280;65157;50.082;18.178;2023-05-14T05:04:04;99565.67;;;10.63;69.69
76337;BME280;65157;50.082;18.178;2023-05-14T05:06:32;99567.05;;;10.73;70.03
76337;BME280;65157;50.082;18.178;2023-05-14T05:08:59;99571.98;;;10.79;69.53
76337;BME280;65157;50.082;18.178;2023-05-14T05:11:26;99570.09;;;10.82;69.18
76337;BME280;65157;50.082;18.178;2023-05-14T05:13:53;99568.13;;;10.87;68.98
76337;BME280;65157;50.082;18.178;2023-05-14T05:16:20;99570.10;;;10.91;69.12
76337;BME280;65157;50.082;18.178;2023-05-14T05:18:47;99568.52;;;10.95;69.25
76337;BME280;65157;50.082;18.178;2023-05-14T05:21:15;99562.73;;;10.98;69.30
76337;BME280;65157;50.082;18.178;2023-05-14T05:23:41;99563.11;;;11.02;69.20
76337;BME280;65157;50.082;18.178;2023-05-14T05:26:08;99568.07;;;11.11;69.13
76337;BME280;65157;50.082;18.178;2023-05-14T05:28:35;99570.02;;;11.24;68.92
76337;BME280;65157;50.082;18.178;2023-05-14T05:31:02;99566.88;;;11.41;68.87
76337;BME280;65157;50.082;18.178;2023-05-14T05:33:29;99569.50;;;11.63;69.30
76337;BME280;65157;50.082;18.178;2023-05-14T05:35:55;99561.80;;;11.87;69.13
76337;BME280;65157;50.082;18.178;2023-05-14T05:38:22;99556.15;;;12.11;68.99
76337;BME280;65157;50.082;18.178;2023-05-14T05:40:48;99551.34;;;12.36;69.15
76337;BME280;65157;50.082;18.178;2023-05-14T05:43:15;99547.61;;;12.63;69.33
76337;BME280;65157;50.082;18.178;2023-05-14T05:45:42;99543.68;;;12.90;69.07
76337;BME280;65157;50.082;18.178;2023-05-14T05:48:09;99539.38;;;13.18;68.83
76337;BME280;65157;50.082;18.178;2023-05-14T05:50:35;99534.33;;;13.42;68.92
76337;BME280;65157;50.082;18.178;2023-05-14T05:53:02;99530.93;;;13.67;68.54
76337;BME280;65157;50.082;18.178;2023-05-14T05:55:29;99527.98;;;13.90;68.21
76337;BME280;65157;50.082;18.178;2023-05-14T05:57:56;99520.98;;;14.12;67.74
76337;BME280;65157;50.082;18.178;2023-05-14T06:00:22;99519.11;;;14.37;67.33
76337;BME280;65157;50.082;18.178;2023-05-14T06:02:49;99517.50;;;14.60;66.83
76337;BME280;65157;50.082;18.178;2023-05-14T06:05:15;99510.17;;;14.78;66.08
76337;BME280;65157;50.082;18.178;2023-05-14T06:07:42;99512.52;;;15.02;65.74
76337;BME280;65157;50.082;18.178;2023-05-14T06:10:10;99511.31;;;15.26;65.27
76337;BME280;65157;50.082;18.178;2023-05-14T06:12:37;99513.02;;;15.47;64.22
76337;BME280;65157;50.082;18.178;2023-05-14T06:15:04;99489.29;;;15.54;64.01
76337;BME280;65157;50.082;18.178;2023-05-14T06:17:31;99487.39;;;15.71;63.17
76337;BME280;65157;50.082;18.178;2023-05-14T06:19:58;99500.75;;;15.92;61.61
76337;BME280;65157;50.082;18.178;2023-05-14T06:22:24;99501.86;;;16.02;61.16
76337;BME280;65157;50.082;18.178;2023-05-14T06:24:51;99500.92;;;16.09;60.13
76337;BME280;65157;50.082;18.178;2023-05-14T06:27:17;99503.73;;;16.19;59.54
76337;BME280;65157;50.082;18.178;2023-05-14T06:29:44;99502.27;;;16.30;59.21
76337;BME280;65157;50.082;18.178;2023-05-14T06:32:11;99496.16;;;16.43;59.09
76337;BME280;65157;50.082;18.178;2023-05-14T06:34:37;99506.83;;;16.61;58.36
76337;BME280;65157;50.082;18.178;2023-05-14T06:37:04;99507.69;;;16.73;58.13
76337;BME280;65157;50.082;18.178;2023-05-14T06:39:31;99503.98;;;16.86;58.69
76337;BME280;65157;50.082;18.178;2023-05-14T06:41:57;99504.64;;;16.98;57.44
76337;BME280;65157;50.082;18.178;2023-05-14T06:44:24;99490.10;;;16.99;57.79
76337;BME280;65157;50.082;18.178;2023-05-14T06:46:52;99493.79;;;17.16;56.97
76337;BME280;65157;50.082;18.178;2023-05-14T06:49:19;99503.27;;;17.27;56.52
76337;BME280;65157;50.082;18.178;2023-05-14T06:51:46;99502.84;;;17.38;56.81
76337;BME280;65157;50.082;18.178;2023-05-14T06:54:16;99493.71;;;17.53;56.30
76337;BME280;65157;50.082;18.178;2023-05-14T06:56:42;99494.13;;;17.55;55.39
76337;BME280;65157;50.082;18.178;2023-05-14T06:59:09;99495.77;;;17.62;55.93
76337;BME280;65157;50.082;18.178;2023-05-14T07:01:36;99497.90;;;17.73;55.84
76337;BME280;65157;50.082;18.178;2023-05-14T07:04:02;99494.05;;;17.82;55.38
76337;BME280;65157;50.082;18.178;2023-05-14T07:06:30;99500.92;;;17.91;53.86
76337;BME280;65157;50.082;18.178;2023-05-14T07:08:57;99490.38;;;17.91;53.23
76337;BME280;65157;50.082;18.178;2023-05-14T07:11:23;99495.23;;;17.98;53.29
76337;BME280;65157;50.082;18.178;2023-05-14T07:13:50;99485.04;;;18.04;54.03
76337;BME280;65157;50.082;18.178;2023-05-14T07:16:17;99500.30;;;18.26;52.85
76337;BME280;65157;50.082;18.178;2023-05-14T07:18:44;99502.06;;;18.34;53.02
76337;BME280;65157;50.082;18.178;2023-05-14T07:21:11;99503.78;;;18.42;52.96
76337;BME280;65157;50.082;18.178;2023-05-14T07:23:37;99506.36;;;18.49;52.89
76337;BME280;65157;50.082;18.178;2023-05-14T07:26:05;99510.98;;;18.50;51.85
76337;BME280;65157;50.082;18.178;2023-05-14T07:28:32;99515.49;;;18.49;51.98
76337;BME280;65157;50.082;18.178;2023-05-14T07:30:59;99512.19;;;18.45;51.51
76337;BME280;65157;50.082;18.178;2023-05-14T07:33:26;99512.54;;;18.45;51.97
76337;BME280;65157;50.082;18.178;2023-05-14T07:35:52;99506.02;;;18.52;52.13
76337;BME280;65157;50.082;18.178;2023-05-14T07:38:19;99502.36;;;18.57;51.62
76337;BME280;65157;50.082;18.178;2023-05-14T07:40:49;99482.36;;;18.53;51.85
76337;BME280;65157;50.082;18.178;2023-05-14T07:43:16;99492.05;;;18.69;51.88
76337;BME280;65157;50.082;18.178;2023-05-14T07:45:42;99488.45;;;18.80;51.66
76337;BME280;65157;50.082;18.178;2023-05-14T07:48:09;99479.25;;;18.86;51.35
76337;BME280;65157;50.082;18.178;2023-05-14T07:50:37;99477.16;;;19.00;51.33
76337;BME280;65157;50.082;18.178;2023-05-14T07:53:04;99473.92;;;19.12;50.96
76337;BME280;65157;50.082;18.178;2023-05-14T07:55:31;99467.98;;;19.27;50.86
76337;BME280;65157;50.082;18.178;2023-05-14T07:57:57;99463.90;;;19.39;50.79
76337;BME280;65157;50.082;18.178;2023-05-14T08:00:24;99462.38;;;19.54;50.79
76337;BME280;65157;50.082;18.178;2023-05-14T08:02:51;99454.71;;;19.79;51.45
76337;BME280;65157;50.082;18.178;2023-05-14T08:05:18;99446.90;;;20.08;51.63
76337;BME280;65157;50.082;18.178;2023-05-14T08:07:45;99444.11;;;20.32;49.96
76337;BME280;65157;50.082;18.178;2023-05-14T08:10:13;99430.92;;;20.38;49.28
76337;BME280;65157;50.082;18.178;2023-05-14T08:12:40;99434.97;;;20.41;47.33
76337;BME280;65157;50.082;18.178;2023-05-14T08:15:07;99438.13;;;20.36;47.72
76337;BME280;65157;50.082;18.178;2023-05-14T08:17:34;99426.83;;;20.38;48.22
76337;BME280;65157;50.082;18.178;2023-05-14T08:20:00;99431.62;;;20.47;48.52
76337;BME280;65157;50.082;18.178;2023-05-14T08:22:27;99422.63;;;20.61;49.19
76337;BME280;65157;50.082;18.178;2023-05-14T08:24:53;99419.14;;;20.79;48.05
76337;BME280;65157;50.082;18.178;2023-05-14T08:27:20;99412.29;;;20.98;48.99
76337;BME280;65157;50.082;18.178;2023-05-14T08:29:46;99407.71;;;21.24;48.60
76337;BME280;65157;50.082;18.178;2023-05-14T08:32:13;99398.42;;;21.49;47.16
76337;BME280;65157;50.082;18.178;2023-05-14T08:34:40;99395.66;;;21.54;45.98
76337;BME280;65157;50.082;18.178;2023-05-14T08:37:06;99398.15;;;21.42;44.84
76337;BME280;65157;50.082;18.178;2023-05-14T08:39:33;99394.37;;;21.23;45.04
76337;BME280;65157;50.082;18.178;2023-05-14T08:42:01;99400.65;;;21.23;44.87
76337;BME280;65157;50.082;18.178;2023-05-14T08:44:36;99397.10;;;21.29;45.43
76337;BME280;65157;50.082;18.178;2023-05-14T08:47:05;99394.53;;;21.45;45.61
76337;BME280;65157;50.082;18.178;2023-05-14T08:49:39;99398.11;;;21.59;44.37
76337;BME280;65157;50.082;18.178;2023-05-14T08:52:07;99397.35;;;21.70;44.52
76337;BME280;65157;50.082;18.178;2023-05-14T08:54:35;99398.93;;;21.71;43.92
76337;BME280;65157;50.082;18.178;2023-05-14T08:57:02;99391.17;;;21.77;44.34
76337;BME280;65157;50.082;18.178;2023-05-14T08:59:30;99392.29;;;21.81;43.66
76337;BME280;65157;50.082;18.178;2023-05-14T09:02:00;99393.11;;;21.86;43.43
76337;BME280;65157;50.082;18.178;2023-05-14T09:04:27;99390.68;;;21.83;43.38
76337;BME280;65157;50.082;18.178;2023-05-14T09:06:54;99390.15;;;21.89;43.51
76337;BME280;65157;50.082;18.178;2023-05-14T09:09:21;99391.00;;;21.96;42.99
76337;BME280;65157;50.082;18.178;2023-05-14T09:11:50;99390.83;;;21.83;42.20
76337;BME280;65157;50.082;18.178;2023-05-14T09:14:17;99388.91;;;21.72;43.39
76337;BME280;65157;50.082;18.178;2023-05-14T09:16:46;99393.55;;;21.71;42.48
76337;BME280;65157;50.082;18.178;2023-05-14T09:19:14;99395.41;;;21.59;42.86
76337;BME280;65157;50.082;18.178;2023-05-14T09:21:41;99398.38;;;21.56;42.15
76337;BME280;65157;50.082;18.178;2023-05-14T09:24:20;99396.11;;;21.45;42.35
76337;BME280;65157;50.082;18.178;2023-05-14T09:26:55;99381.30;;;21.35;41.58
76337;BME280;65157;50.082;18.178;2023-05-14T09:29:27;99382.05;;;21.48;43.13
76337;BME280;65157;50.082;18.178;2023-05-14T09:31:56;99386.08;;;21.66;41.84
76337;BME280;65157;50.082;18.178;2023-05-14T09:34:24;99387.43;;;21.69;41.47
76337;BME280;65157;50.082;18.178;2023-05-14T09:36:59;99376.69;;;21.70;40.79
76337;BME280;65157;50.082;18.178;2023-05-14T09:39:26;99369.59;;;21.73;40.93
76337;BME280;65157;50.082;18.178;2023-05-14T09:41:54;99377.91;;;21.79;40.20
76337;BME280;65157;50.082;18.178;2023-05-14T09:44:21;99375.58;;;21.69;40.98
76337;BME280;65157;50.082;18.178;2023-05-14T09:46:49;99372.08;;;21.67;41.35
76337;BME280;65157;50.082;18.178;2023-05-14T09:49:16;99372.54;;;21.77;41.17
76337;BME280;65157;50.082;18.178;2023-05-14T09:51:43;99371.73;;;21.83;40.80
76337;BME280;65157;50.082;18.178;2023-05-14T09:54:09;99367.52;;;21.87;40.49
76337;BME280;65157;50.082;18.178;2023-05-14T09:56:36;99363.73;;;21.91;40.72
76337;BME280;65157;50.082;18.178;2023-05-14T09:59:03;99361.34;;;21.96;40.58
76337;BME280;65157;50.082;18.178;2023-05-14T10:01:31;99358.25;;;22.07;41.88
76337;BME280;65157;50.082;18.178;2023-05-14T10:03:57;99358.50;;;22.18;42.07
76337;BME280;65157;50.082;18.178;2023-05-14T10:06:27;99352.14;;;22.33;42.83
76337;BME280;65157;50.082;18.178;2023-05-14T10:09:00;99349.49;;;22.42;41.75
76337;BME280;65157;50.082;18.178;2023-05-14T10:11:31;99346.77;;;22.48;41.47
76337;BME280;65157;50.082;18.178;2023-05-14T10:14:07;99343.64;;;22.60;40.74
76337;BME280;65157;50.082;18.178;2023-05-14T10:16:36;99337.11;;;22.64;40.69
76337;BME280;65157;50.082;18.178;2023-05-14T10:19:10;99327.92;;;22.68;40.09
76337;BME280;65157;50.082;18.178;2023-05-14T10:21:39;99325.29;;;22.68;40.73
76337;BME280;65157;50.082;18.178;2023-05-14T10:24:07;99322.45;;;22.71;40.54
76337;BME280;65157;50.082;18.178;2023-05-14T10:26:37;99318.84;;;22.69;40.56
76337;BME280;65157;50.082;18.178;2023-05-14T10:29:05;99312.81;;;22.68;40.62
76337;BME280;65157;50.082;18.178;2023-05-14T10:31:49;99307.96;;;22.74;41.13
76337;BME280;65157;50.082;18.178;2023-05-14T10:37:09;99314.67;;;22.81;40.09
76337;BME280;65157;50.082;18.178;2023-05-14T10:42:09;99303.75;;;22.76;40.09
76337;BME280;65157;50.082;18.178;2023-05-14T10:44:39;99305.73;;;22.79;39.74
76337;BME280;65157;50.082;18.178;2023-05-14T10:47:07;99305.90;;;22.83;39.80
76337;BME280;65157;50.082;18.178;2023-05-14T10:49:34;99314.15;;;22.89;40.10
76337;BME280;65157;50.082;18.178;2023-05-14T10:52:01;99315.14;;;22.90;40.20
76337;BME280;65157;50.082;18.178;2023-05-14T10:54:28;99315.80;;;22.90;39.43
76337;BME280;65157;50.082;18.178;2023-05-14T10:56:57;99307.64;;;22.97;39.56
76337;BME280;65157;50.082;18.178;2023-05-14T10:59:26;99297.42;;;23.10;39.59
76337;BME280;65157;50.082;18.178;2023-05-14T11:01:56;99297.36;;;23.10;39.65
76337;BME280;65157;50.082;18.178;2023-05-14T11:04:22;99294.77;;;23.03;39.11
76337;BME280;65157;50.082;18.178;2023-05-14T11:06:50;99295.03;;;22.95;39.35
76337;BME280;65157;50.082;18.178;2023-05-14T11:09:19;99294.35;;;22.73;39.62
76337;BME280;65157;50.082;18.178;2023-05-14T11:11:46;99298.99;;;22.52;39.64
76337;BME280;65157;50.082;18.178;2023-05-14T11:14:13;99301.13;;;22.26;40.07
76337;BME280;65157;50.082;18.178;2023-05-14T11:16:40;99294.95;;;22.07;41.00
76337;BME280;65157;50.082;18.178;2023-05-14T11:19:07;99293.67;;;21.97;41.23
76337;BME280;65157;50.082;18.178;2023-05-14T11:21:33;99295.25;;;21.96;40.72
76337;BME280;65157;50.082;18.178;2023-05-14T11:24:00;99295.17;;;21.90;39.93
76337;BME280;65157;50.082;18.178;2023-05-14T11:26:27;99293.80;;;21.85;40.64
76337;BME280;65157;50.082;18.178;2023-05-14T11:28:54;99284.81;;;21.83;40.58
76337;BME280;65157;50.082;18.178;2023-05-14T11:31:20;99283.48;;;21.82;40.22
76337;BME280;65157;50.082;18.178;2023-05-14T11:33:47;99275.93;;;21.80;40.75
76337;BME280;65157;50.082;18.178;2023-05-14T11:36:14;99278.25;;;21.80;40.70
76337;BME280;65157;50.082;18.178;2023-05-14T11:38:47;99276.98;;;21.78;40.13
76337;BME280;65157;50.082;18.178;2023-05-14T11:41:14;99281.44;;;21.72;40.36
76337;BME280;65157;50.082;18.178;2023-05-14T11:43:41;99279.31;;;21.64;40.74
76337;BME280;65157;50.082;18.178;2023-05-14T11:46:15;99274.34;;;21.60;41.22
76337;BME280;65157;50.082;18.178;2023-05-14T11:48:42;99267.40;;;21.58;40.10
76337;BME280;65157;50.082;18.178;2023-05-14T11:51:08;99268.17;;;21.56;40.17
76337;BME280;65157;50.082;18.178;2023-05-14T11:53:35;99265.70;;;21.49;39.90
76337;BME280;65157;50.082;18.178;2023-05-14T11:56:02;99265.64;;;21.33;39.58
76337;BME280;65157;50.082;18.178;2023-05-14T11:58:32;99263.73;;;21.26;40.06
76337;BME280;65157;50.082;18.178;2023-05-14T12:00:59;99265.52;;;21.22;40.62
76337;BME280;65157;50.082;18.178;2023-05-14T12:03:25;99257.41;;;21.21;40.27
76337;BME280;65157;50.082;18.178;2023-05-14T12:05:56;99258.61;;;21.19;41.26
76337;BME280;65157;50.082;18.178;2023-05-14T12:08:30;99257.36;;;21.11;40.57
76337;BME280;65157;50.082;18.178;2023-05-14T12:10:58;99252.31;;;21.07;40.95
76337;BME280;65157;50.082;18.178;2023-05-14T12:13:29;99252.59;;;21.08;41.49
76337;BME280;65157;50.082;18.178;2023-05-14T12:15:58;99256.79;;;21.03;41.22
76337;BME280;65157;50.082;18.178;2023-05-14T12:18:30;99253.67;;;20.82;41.23
76337;BME280;65157;50.082;18.178;2023-05-14T12:21:04;99252.96;;;20.67;41.31
76337;BME280;65157;50.082;18.178;2023-05-14T12:23:31;99246.61;;;20.57;41.97
76337;BME280;65157;50.082;18.178;2023-05-14T12:26:02;99232.27;;;20.51;42.50
76337;BME280;65157;50.082;18.178;2023-05-14T12:28:29;99236.19;;;20.58;43.42
76337;BME280;65157;50.082;18.178;2023-05-14T12:30:57;99229.11;;;20.57;42.64
76337;BME280;65157;50.082;18.178;2023-05-14T12:33:25;99233.21;;;20.61;42.70
76337;BME280;65157;50.082;18.178;2023-05-14T12:35:53;99223.21;;;20.58;43.10
76337;BME280;65157;50.082;18.178;2023-05-14T12:38:20;99227.15;;;20.59;42.22
76337;BME280;65157;50.082;18.178;2023-05-14T12:40:46;99225.89;;;20.54;42.28
76337;BME280;65157;50.082;18.178;2023-05-14T12:43:13;99225.33;;;20.46;42.10
76337;BME280;65157;50.082;18.178;2023-05-14T12:45:40;99221.17;;;20.44;41.56
76337;BME280;65157;50.082;18.178;2023-05-14T12:48:06;99223.77;;;20.41;41.73
76337;BME280;65157;50.082;18.178;2023-05-14T12:50:33;99215.27;;;20.36;41.95
76337;BME280;65157;50.082;18.178;2023-05-14T12:52:59;99216.75;;;20.35;41.64
76337;BME280;65157;50.082;18.178;2023-05-14T12:55:26;99214.51;;;20.34;41.47
76337;BME280;65157;50.082;18.178;2023-05-14T12:57:53;99214.46;;;20.33;41.28
76337;BME280;65157;50.082;18.178;2023-05-14T13:00:20;99211.13;;;20.36;42.21
76337;BME280;65157;50.082;18.178;2023-05-14T13:02:47;99207.25;;;20.40;42.13